Time;durP1;ratioP1;P1;durP2;ratioP2;P2;SDS_P1;SDS_P2;PMS_P1;PMS_P2;Temp;Humidity;BMP_temperature;BMP_pressure;BME280_temperature;BME280_humidity;BME280_pressure;Samples;Min_cycle;Max_cycle;Signal;HPM_P1;HPM_P2
2022/02/21 00:01:05;;;;;;;1.20;1.10;;;11.10;63.00;;;10.57;46.60;93858.66;6129439;23;20259;-84
2022/02/21 00:03:32;;;;;;;0.93;0.93;;;11.20;63.00;;;10.64;46.53;93853.34;6129339;23;20593;-83
2022/02/21 00:06:00;;;;;;;0.90;0.90;;;11.10;63.00;;;10.64;46.39;93846.25;6129186;23;20292;-84
2022/02/21 00:08:27;;;;;;;0.82;0.82;;;11.10;63.00;;;10.63;46.40;93836.81;6104522;23;20651;-82
2022/02/21 00:10:54;;;;;;;0.90;0.90;;;11.10;63.00;;;10.67;46.42;93839.81;6104683;23;20204;-83
2022/02/21 00:13:21;;;;;;;0.90;0.90;;;11.10;63.00;;;10.68;46.48;93823.03;6105017;23;20604;-84
2022/02/21 00:15:48;;;;;;;0.98;0.98;;;11.20;63.10;;;10.70;46.45;93831.47;6104969;23;20232;-84
2022/02/21 00:18:15;;;;;;;0.90;0.90;;;11.10;62.90;;;10.66;46.41;93815.38;6105101;23;20237;-83
2022/02/21 00:20:43;;;;;;;1.00;1.00;;;11.20;63.00;;;10.71;46.30;93805.03;6104854;23;20228;-83
2022/02/21 00:23:10;;;;;;;0.90;0.90;;;11.20;63.00;;;10.67;46.58;93806.50;6129766;23;20174;-82
2022/02/21 00:25:37;;;;;;;0.80;0.80;;;11.20;63.00;;;10.67;46.60;93814.38;6105242;23;20239;-83
2022/02/21 00:28:04;;;;;;;1.00;0.95;;;11.20;63.90;;;10.66;46.57;93799.66;6128949;23;20804;-84
2022/02/21 00:30:32;;;;;;;0.98;0.98;;;11.10;63.00;;;10.62;46.59;93779.31;6129802;23;20223;-83
2022/02/21 00:32:59;;;;;;;0.95;0.95;;;11.20;63.00;;;10.64;46.48;93756.31;6128481;23;20185;-83
2022/02/21 00:35:27;;;;;;;0.85;0.80;;;11.10;62.90;;;10.61;46.81;93757.56;6103981;23;20204;-83
2022/02/21 00:37:54;;;;;;;1.10;1.00;;;11.10;62.80;;;10.61;46.67;93747.06;6104923;23;20193;-83
2022/02/21 00:40:21;;;;;;;1.00;1.00;;;11.10;62.90;;;10.63;46.51;93780.94;6105248;23;20193;-83
2022/02/21 00:42:48;;;;;;;0.90;0.90;;;11.10;62.90;;;10.66;46.28;93744.59;6104823;23;20189;-84
2022/02/21 00:45:17;;;;;;;2.20;1.00;;;11.10;63.00;;;10.68;46.27;93741.72;6129314;23;20221;-83
2022/02/21 00:47:44;;;;;;;1.10;0.90;;;11.20;63.00;;;10.71;46.33;93747.34;6129250;23;20188;-84
2022/02/21 00:50:11;;;;;;;0.85;0.85;;;11.20;63.00;;;10.75;46.42;93736.41;6106627;23;20201;-83
2022/02/21 00:52:38;;;;;;;0.90;0.90;;;11.20;62.90;;;10.75;46.20;93718.84;6131446;23;20675;-84
2022/02/21 00:55:07;;;;;;;1.33;1.02;;;11.30;63.00;;;10.75;46.46;93712.81;6131031;23;20193;-84
2022/02/21 00:57:34;;;;;;;0.90;0.90;;;11.20;62.80;;;10.72;46.30;93732.41;6106364;23;20173;-83
2022/02/21 01:00:04;;;;;;;1.00;1.00;;;11.20;63.10;;;10.72;46.39;93700.94;6130956;23;20193;-83
2022/02/21 01:02:33;;;;;;;0.90;0.90;;;11.30;62.80;;;10.71;45.96;93712.44;6107123;23;20616;-84
2022/02/21 01:05:01;;;;;;;1.40;1.30;;;11.20;62.60;;;10.70;46.17;93723.97;6131137;23;20224;-83
2022/02/21 01:07:28;;;;;;;1.00;1.00;;;11.30;62.70;;;10.75;46.03;93697.88;6129813;23;20260;-84
2022/02/21 01:09:56;;;;;;;0.90;0.90;;;11.20;62.70;;;10.78;46.04;93686.94;6130667;23;20541;-84
2022/02/21 01:12:23;;;;;;;1.23;0.90;;;11.30;62.90;;;10.84;46.17;93698.34;6131056;23;20181;-84
2022/02/21 01:14:51;;;;;;;2.10;0.80;;;11.20;62.80;;;10.84;45.99;93696.53;6131316;23;20294;-83
2022/02/21 01:17:21;;;;;;;0.80;0.80;;;11.30;62.90;;;10.86;45.61;93704.19;6130383;23;20187;-84
2022/02/21 01:19:50;;;;;;;0.80;0.80;;;11.30;62.90;;;10.93;45.98;93680.50;6082860;23;20205;-84
2022/02/21 01:22:17;;;;;;;1.00;0.90;;;11.30;62.80;;;10.93;45.78;93685.72;6131363;23;20612;-84
2022/02/21 01:24:45;;;;;;;0.82;0.82;;;11.40;62.90;;;11.01;45.88;93682.78;6106762;23;20514;-83
2022/02/21 01:27:14;;;;;;;0.65;0.65;;;11.40;62.90;;;11.01;45.55;93673.09;6106169;23;20220;-84
2022/02/21 01:29:41;;;;;;;0.70;0.70;;;11.40;62.80;;;11.04;45.94;93677.09;6155083;23;20264;-83
2022/02/21 01:32:10;;;;;;;0.70;0.70;;;11.40;62.80;;;11.11;45.91;93711.09;6131214;23;20236;-84
2022/02/21 01:34:37;;;;;;;0.90;0.90;;;11.50;62.80;;;11.13;45.67;93696.75;6130713;23;20583;-84
2022/02/21 01:37:05;;;;;;;0.60;0.60;;;11.50;62.70;;;11.12;45.75;93682.00;6106563;23;20605;-85
2022/02/21 01:39:32;;;;;;;0.80;0.80;;;11.50;62.70;;;11.13;46.33;93678.38;6131097;23;20228;-84
2022/02/21 01:42:00;;;;;;;0.70;0.70;;;11.50;62.60;;;11.13;45.79;93657.38;6107085;23;20177;-85
2022/02/21 01:44:37;;;;;;;1.33;0.90;;;11.60;62.80;;;11.11;45.80;93661.22;6105817;23;20223;-84
2022/02/21 01:47:07;;;;;;;0.82;0.73;;;11.60;62.60;;;11.12;45.67;93642.66;6106847;23;20169;-84
2022/02/21 01:49:35;;;;;;;0.80;0.80;;;11.60;62.60;;;11.12;45.70;93628.72;6106964;23;20184;-84
2022/02/21 01:52:04;;;;;;;0.90;0.90;;;11.60;62.60;;;11.15;45.38;93630.91;6106636;23;20220;-84
2022/02/21 01:54:32;;;;;;;0.80;0.80;;;11.60;62.50;;;11.15;45.83;93641.41;6105528;23;20192;-84
2022/02/21 01:57:00;;;;;;;0.70;0.70;;;11.60;62.50;;;11.15;45.42;93630.91;6081705;23;20180;-83
2022/02/21 01:59:27;;;;;;;0.82;0.82;;;11.60;62.40;;;11.15;45.24;93628.28;6130349;23;20578;-83
2022/02/21 02:01:55;;;;;;;1.20;0.88;;;11.60;62.30;;;11.19;45.50;93600.53;6130048;23;20173;-84
2022/02/21 02:04:25;;;;;;;1.13;1.02;;;11.70;62.50;;;11.19;45.25;93609.22;6105950;23;20197;-83
2022/02/21 02:06:53;;;;;;;1.27;1.15;;;11.60;62.30;;;11.19;45.12;93616.28;6107284;23;20185;-85
2022/02/21 02:09:20;;;;;;;0.90;0.90;;;11.60;62.10;;;11.18;44.94;93610.25;6130405;23;20195;-84
2022/02/21 02:11:48;;;;;;;1.25;1.15;;;11.70;62.30;;;11.20;45.03;93595.09;6106050;23;20236;-83
2022/02/21 02:14:35;;;;;;;0.90;0.90;;;11.60;62.10;;;11.19;44.88;93579.53;6130155;23;20200;-84
2022/02/21 02:17:13;;;;;;;1.10;1.00;;;11.60;61.80;;;11.17;44.80;93615.75;6130922;23;20161;-84
2022/02/21 02:19:43;;;;;;;0.90;0.90;;;11.60;62.00;;;11.10;45.03;93576.47;6105984;23;20193;-85
2022/02/21 02:22:13;;;;;;;1.00;1.00;;;11.60;62.10;;;11.14;45.10;93572.34;6082217;23;20630;-84
2022/02/21 02:24:43;;;;;;;1.55;0.90;;;11.60;62.10;;;11.15;44.93;93573.94;6130214;23;20203;-84
2022/02/21 02:27:11;;;;;;;1.10;1.10;;;11.60;62.10;;;11.15;45.10;93560.84;6130587;23;20188;-84
2022/02/21 02:29:41;;;;;;;0.90;0.90;;;11.70;62.20;;;11.12;45.09;93557.88;6106123;23;20193;-84
2022/02/21 02:32:10;;;;;;;0.90;0.90;;;11.70;62.10;;;11.10;44.92;93571.22;6106551;23;20185;-84
2022/02/21 02:34:41;;;;;;;1.25;1.00;;;11.60;61.90;;;11.05;45.01;93552.75;6130709;23;20189;-84
2022/02/21 02:37:09;;;;;;;1.00;1.00;;;11.60;61.90;;;11.09;45.03;93556.50;6130947;23;20165;-84
2022/02/21 02:39:38;;;;;;;1.95;1.00;;;11.60;62.00;;;11.12;45.00;93510.63;6105988;23;20201;-83
2022/02/21 02:42:06;;;;;;;1.30;1.15;;;11.60;61.90;;;11.11;44.73;93509.03;6130835;23;20220;-84
2022/02/21 02:44:34;;;;;;;2.13;1.00;;;11.60;62.50;;;11.14;45.13;93492.84;6104067;23;20193;-84
2022/02/21 02:47:06;;;;;;;1.00;1.00;;;11.60;61.90;;;11.13;44.92;93501.72;6130086;23;20177;-83
2022/02/21 02:49:34;;;;;;;0.98;0.90;;;11.60;62.00;;;11.16;45.09;93498.66;6105882;23;20200;-84
2022/02/21 02:52:03;;;;;;;1.00;1.00;;;11.60;61.90;;;11.13;44.52;93499.94;6105307;23;20265;-84
2022/02/21 02:54:30;;;;;;;1.17;1.00;;;11.60;61.90;;;11.13;45.17;93496.50;6081834;23;20227;-83
2022/02/21 02:56:58;;;;;;;1.92;1.23;;;11.70;62.00;;;11.11;44.62;93491.47;6105649;23;20264;-84
2022/02/21 02:59:25;;;;;;;1.80;1.10;;;11.60;61.70;;;11.09;44.17;93504.03;6105720;23;20208;-84
2022/02/21 03:01:54;;;;;;;2.60;1.20;;;11.70;61.80;;;11.12;44.91;93497.50;6104695;23;20265;-83
2022/02/21 03:04:22;;;;;;;1.33;1.00;;;11.60;61.80;;;11.10;44.76;93468.88;6105379;23;20280;-84
2022/02/21 03:06:49;;;;;;;1.00;1.00;;;11.60;61.70;;;11.13;44.86;93465.81;6105756;23;20188;-84
2022/02/21 03:09:17;;;;;;;1.65;1.00;;;11.60;61.80;;;11.14;44.52;93487.59;6105601;23;20188;-84
2022/02/21 03:11:44;;;;;;;1.85;1.10;;;11.60;61.60;;;11.14;44.71;93462.13;6154346;23;20636;-83
2022/02/21 03:14:11;;;;;;;1.38;1.10;;;11.60;61.70;;;11.11;44.54;93444.25;6105158;23;20211;-84
2022/02/21 03:16:39;;;;;;;1.52;0.95;;;11.60;61.70;;;11.10;44.62;93437.41;6105095;23;20188;-84
2022/02/21 03:19:06;;;;;;;1.92;1.10;;;11.60;61.60;;;11.14;44.27;93456.09;6105655;23;20184;-84
2022/02/21 03:21:33;;;;;;;1.60;1.10;;;11.60;61.70;;;11.12;44.59;93437.97;6105939;23;20177;-83
2022/02/21 03:24:00;;;;;;;1.55;1.05;;;11.60;61.70;;;11.13;44.66;93436.13;6129759;23;20185;-84
2022/02/21 03:26:27;;;;;;;1.90;1.40;;;11.60;61.70;;;11.10;44.69;93432.16;6130163;23;20247;-84
2022/02/21 03:28:55;;;;;;;1.17;1.08;;;11.60;61.60;;;11.09;44.65;93432.38;6104932;23;20208;-83
2022/02/21 03:31:22;;;;;;;2.03;1.13;;;11.50;62.50;;;11.09;44.27;93438.41;6129740;23;20711;-83
2022/02/21 03:33:49;;;;;;;1.20;1.10;;;11.60;61.50;;;11.08;44.64;93422.91;6130055;23;20180;-84
2022/02/21 03:36:16;;;;;;;1.00;0.90;;;11.60;61.70;;;11.09;44.56;93414.81;6104515;23;20671;-82
2022/02/21 03:38:43;;;;;;;1.20;1.10;;;11.60;61.70;;;11.05;44.72;93416.31;6105882;23;20173;-83
2022/02/21 03:41:10;;;;;;;3.17;1.50;;;11.60;61.70;;;11.05;44.73;93411.06;6129549;23;20203;-84
2022/02/21 03:43:38;;;;;;;1.00;1.00;;;11.60;61.60;;;11.01;44.76;93400.22;6129868;23;20616;-83
2022/02/21 03:46:06;;;;;;;2.35;1.08;;;11.50;61.50;;;10.98;44.50;93392.03;6105472;23;20201;-85
2022/02/21 03:48:33;;;;;;;0.90;0.90;;;11.60;61.50;;;11.03;44.63;93405.25;6105093;23;20181;-85
2022/02/21 03:51:00;;;;;;;1.13;1.05;;;11.50;61.60;;;10.99;44.55;93397.03;6105147;23;20327;-84
2022/02/21 03:53:27;;;;;;;1.60;1.05;;;11.60;61.70;;;11.00;44.73;93403.09;6105106;23;20203;-84
2022/02/21 03:55:55;;;;;;;1.77;1.20;;;11.50;61.70;;;11.03;44.67;93397.38;6105303;23;20197;-84
2022/02/21 03:58:23;;;;;;;1.30;1.20;;;11.60;61.80;;;11.04;44.48;93398.97;6106131;23;20177;-83
2022/02/21 04:00:50;;;;;;;1.27;1.10;;;11.50;61.80;;;11.05;44.75;93398.72;6129067;23;20253;-84
2022/02/21 04:03:17;;;;;;;2.13;1.10;;;11.50;61.70;;;11.08;44.89;93386.19;6105659;23;20176;-85
2022/02/21 04:05:44;;;;;;;1.17;0.95;;;11.50;61.70;;;11.05;44.59;93369.09;6105479;23;20272;-83
2022/02/21 04:08:11;;;;;;;1.48;1.10;;;11.50;61.70;;;11.04;44.59;93372.72;6129209;23;20630;-84
2022/02/21 04:10:38;;;;;;;2.13;1.13;;;11.50;61.70;;;11.01;44.70;93400.22;6104998;23;20198;-84
2022/02/21 04:13:05;;;;;;;1.20;1.10;;;11.50;61.60;;;11.10;44.63;93381.50;6129226;23;20516;-84
2022/02/21 04:15:33;;;;;;;1.83;0.95;;;11.60;61.70;;;11.11;44.59;93357.66;6105014;23;20627;-84
2022/02/21 04:18:00;;;;;;;1.40;1.10;;;11.60;61.70;;;11.17;44.45;93364.59;6081130;23;20181;-82
2022/02/21 04:20:27;;;;;;;1.92;1.20;;;11.60;62.60;;;11.22;44.52;93374.41;6128577;23;20212;-83
2022/02/21 04:22:54;;;;;;;2.10;1.10;;;11.60;61.70;;;11.24;44.58;93379.41;6105098;23;20220;-84
2022/02/21 04:25:22;;;;;;;1.80;1.25;;;11.70;61.60;;;11.25;44.39;93367.88;6128582;23;20200;-84
2022/02/21 04:27:53;;;;;;;1.20;1.10;;;11.70;61.60;;;11.21;44.35;93357.84;6105144;23;20215;-84
2022/02/21 04:30:25;;;;;;;1.85;1.20;;;11.60;61.50;;;11.24;44.70;93347.91;6128951;23;20251;-84
2022/02/21 04:32:53;;;;;;;3.13;1.10;;;11.70;61.60;;;11.21;44.43;93352.59;6129345;23;20243;-83
2022/02/21 04:35:22;;;;;;;1.00;1.00;;;11.80;61.60;;;11.29;44.51;93363.75;6129214;23;20203;-83
2022/02/21 04:37:50;;;;;;;3.53;1.25;;;11.70;61.70;;;11.31;44.43;93361.69;6129469;23;20196;-83
2022/02/21 04:40:23;;;;;;;1.00;1.00;;;11.70;61.80;;;11.27;44.42;93343.00;6105397;23;20193;-84
2022/02/21 04:42:53;;;;;;;0.80;0.80;;;11.80;61.70;;;11.31;44.69;93361.69;6104498;23;20662;-83
2022/02/21 04:45:22;;;;;;;1.35;0.93;;;11.80;61.80;;;11.30;44.04;93333.84;6104362;23;20214;-84
2022/02/21 04:47:50;;;;;;;1.08;0.90;;;11.70;61.70;;;11.35;44.63;93345.25;6104356;23;20177;-85
2022/02/21 04:50:18;;;;;;;1.35;1.15;;;11.70;61.80;;;11.34;44.77;93345.50;6105190;23;20279;-84
2022/02/21 04:52:46;;;;;;;1.30;1.20;;;11.70;61.80;;;11.31;45.02;93357.22;6104854;23;20224;-85
2022/02/21 04:55:13;;;;;;;1.92;1.10;;;11.80;61.90;;;11.35;44.68;93342.63;6104816;23;20714;-84
2022/02/21 04:57:42;;;;;;;1.90;1.20;;;11.80;62.00;;;11.36;44.92;93349.47;6129145;23;20215;-84
2022/02/21 05:00:12;;;;;;;1.25;1.00;;;11.80;62.00;;;11.40;45.09;93348.97;6153617;23;20219;-84
2022/02/21 05:02:40;;;;;;;1.85;1.20;;;11.80;61.90;;;11.31;45.15;93328.34;6103546;23;20663;-83
2022/02/21 05:05:12;;;;;;;1.20;1.10;;;11.80;62.10;;;11.37;45.29;93326.63;6104314;23;20650;-83
2022/02/21 05:07:40;;;;;;;1.00;1.00;;;11.90;62.20;;;11.37;45.48;93324.78;6129227;23;20195;-83
2022/02/21 05:10:08;;;;;;;1.10;1.00;;;11.80;62.20;;;11.38;45.24;93341.34;6104645;23;20648;-84
2022/02/21 05:12:36;;;;;;;1.00;1.00;;;11.80;62.20;;;11.36;45.50;93330.28;6103788;23;20236;-84
2022/02/21 05:15:05;;;;;;;1.08;0.90;;;11.80;63.10;;;11.33;45.49;93338.63;6104117;23;20216;-84
2022/02/21 05:17:32;;;;;;;1.20;1.10;;;11.80;62.30;;;11.31;45.67;93317.06;6153800;23;20197;-84
2022/02/21 05:19:59;;;;;;;1.00;1.00;;;11.80;62.40;;;11.29;45.60;93329.63;6104940;23;20236;-84
2022/02/21 05:22:28;;;;;;;1.10;1.10;;;11.80;62.40;;;11.25;45.81;93329.28;6104196;23;20624;-83
2022/02/21 05:24:55;;;;;;;1.00;1.00;;;11.80;62.40;;;11.21;45.98;93318.47;6129430;23;20300;-84
2022/02/21 05:27:23;;;;;;;0.93;0.93;;;11.70;62.40;;;11.19;46.55;93317.13;6104341;23;20235;-84
2022/02/21 05:29:50;;;;;;;1.00;1.00;;;11.70;62.60;;;11.15;46.39;93292.38;6128944;23;20193;-82
2022/02/21 05:32:17;;;;;;;1.20;1.10;;;11.70;62.70;;;11.01;46.81;93313.66;6128693;23;20201;-84
2022/02/21 05:34:45;;;;;;;1.27;1.15;;;11.70;62.80;;;11.01;47.09;93303.16;6105175;23;20197;-83
2022/02/21 05:37:12;;;;;;;1.05;0.90;;;11.70;63.00;;;10.93;46.86;93293.03;6106734;23;20172;-83
2022/02/21 05:39:39;;;;;;;1.20;1.10;;;11.60;63.10;;;10.90;47.25;93293.53;6106383;23;20671;-82
2022/02/21 05:42:06;;;;;;;1.20;1.00;;;11.60;63.00;;;10.86;47.08;93287.94;6131161;23;20181;-84
2022/02/21 05:44:33;;;;;;;0.80;0.80;;;11.50;63.10;;;10.78;47.37;93329.44;6154957;23;20207;-84
2022/02/21 05:47:01;;;;;;;1.10;1.02;;;11.50;63.20;;;10.68;48.75;93304.63;6129980;23;20247;-83
2022/02/21 05:49:28;;;;;;;1.85;1.20;;;11.40;63.80;;;10.62;48.27;93299.50;6130543;23;20457;-83
2022/02/21 05:51:55;;;;;;;1.30;1.10;;;11.30;63.60;;;10.51;47.99;93288.81;6106520;23;20227;-83
2022/02/21 05:54:22;;;;;;;1.30;1.10;;;11.20;63.50;;;10.40;49.65;93300.13;6104912;23;20224;-84
2022/02/21 05:56:49;;;;;;;1.00;1.00;;;11.20;64.20;;;10.31;49.02;93270.03;6106704;23;20173;-83
2022/02/21 05:59:17;;;;;;;1.00;1.00;;;11.10;64.00;;;10.21;49.39;93268.00;6104865;23;20260;-82
2022/02/21 06:01:45;;;;;;;1.10;1.10;;;11.00;64.20;;;10.08;49.15;93248.88;6130389;23;20169;-83
2022/02/21 06:04:12;;;;;;;1.60;1.30;;;10.90;64.20;;;10.03;49.41;93259.25;6129727;23;20161;-83
2022/02/21 06:06:39;;;;;;;1.23;1.10;;;10.80;64.20;;;9.95;48.84;93262.22;6130043;23;20181;-84
2022/02/21 06:09:06;;;;;;;1.00;1.00;;;10.70;64.10;;;9.89;49.23;93279.63;6103353;23;20173;-82
2022/02/21 06:11:34;;;;;;;1.00;1.00;;;10.70;64.10;;;9.82;49.24;93254.59;6128972;23;20201;-83
2022/02/21 06:14:01;;;;;;;1.02;1.00;;;10.60;64.20;;;9.77;49.13;93250.03;6105922;23;20177;-83
2022/02/21 06:16:28;;;;;;;1.20;1.10;;;10.60;64.10;;;9.72;49.54;93242.06;6129324;23;20173;-83
2022/02/21 06:18:55;;;;;;;1.20;1.15;;;10.60;64.30;;;9.65;49.90;93246.63;6130553;23;20177;-84
2022/02/21 06:21:23;;;;;;;2.92;1.05;;;10.40;64.40;;;9.63;50.08;93243.41;6127919;23;20667;-82
2022/02/21 06:23:51;;;;;;;1.00;1.00;;;10.40;64.60;;;9.57;49.89;93245.09;6127372;23;20189;-83
2022/02/21 06:26:18;;;;;;;1.10;1.00;;;10.40;64.70;;;9.56;50.83;93231.25;6103284;23;20202;-82
2022/02/21 06:28:46;;;;;;;1.50;1.40;;;10.30;65.00;;;9.55;50.92;93227.03;6128841;23;20201;-82
2022/02/21 06:31:13;;;;;;;1.23;1.00;;;10.30;65.00;;;9.56;49.64;93226.00;6102921;23;20201;-82
2022/02/21 06:33:40;;;;;;;2.55;1.17;;;10.20;64.80;;;9.58;49.99;93231.00;6102612;23;20191;-82
2022/02/21 06:36:07;;;;;;;1.15;0.90;;;10.20;64.80;;;9.59;49.95;93229.97;6102760;23;20664;-82
2022/02/21 06:38:36;;;;;;;1.15;1.10;;;10.20;64.80;;;9.61;49.74;93227.94;6102041;23;20515;-82
2022/02/21 06:41:04;;;;;;;0.98;0.98;;;10.20;64.90;;;9.62;49.73;93224.31;6102771;23;20251;-83
2022/02/21 06:43:31;;;;;;;1.30;1.10;;;10.20;64.90;;;9.61;49.61;93235.81;6128735;23;20201;-83
2022/02/21 06:45:59;;;;;;;1.60;1.13;;;10.30;64.90;;;9.62;49.66;93219.06;6127728;23;20225;-83
2022/02/21 06:48:26;;;;;;;1.50;1.20;;;10.20;64.90;;;9.66;49.79;93232.50;6127320;23;20176;-83
2022/02/21 06:50:54;;;;;;;1.33;1.10;;;10.30;65.10;;;9.68;49.67;93233.88;6102488;23;20248;-83
2022/02/21 06:53:23;;;;;;;1.20;1.05;;;10.20;65.10;;;9.68;49.78;93204.25;6103092;23;20264;-83
2022/02/21 06:55:50;;;;;;;1.55;1.20;;;10.20;65.00;;;9.73;49.64;93213.03;6127150;23;20370;-83
2022/02/21 06:58:18;;;;;;;2.28;1.00;;;10.20;65.00;;;9.76;49.50;93212.59;6151527;23;20624;-83
2022/02/21 07:00:46;;;;;;;3.10;1.10;;;10.30;65.00;;;9.77;49.52;93181.97;6103894;23;20201;-81
2022/02/21 07:03:13;;;;;;;1.65;1.15;;;10.30;65.00;;;9.84;49.36;93187.06;6100832;23;20205;-79
2022/02/21 07:05:43;;;;;;;1.17;1.10;;;10.30;65.00;;;9.87;49.39;93174.31;6076855;23;20667;-80
2022/02/21 07:08:10;;;;;;;1.00;1.00;;;10.50;65.10;;;9.90;49.82;93188.78;6152105;23;20181;-82
2022/02/21 07:10:38;;;;;;;1.08;1.08;;;10.40;65.10;;;9.98;49.52;93200.72;6105193;23;20659;-82
2022/02/21 07:13:05;;;;;;;2.28;1.27;;;10.40;65.10;;;10.05;49.39;93194.31;6128728;23;20232;-86
2022/02/21 07:15:33;;;;;;;1.63;0.90;;;10.40;65.10;;;10.15;49.36;93172.78;6103970;23;20284;-84
2022/02/21 07:18:00;;;;;;;1.20;1.10;;;10.50;65.00;;;10.24;49.18;93189.72;6102036;23;20620;-84
2022/02/21 07:20:27;;;;;;;3.53;1.10;;;10.50;65.00;;;10.31;49.35;93165.22;6127653;23;20209;-86
2022/02/21 07:22:55;;;;;;;2.08;1.10;;;10.60;65.00;;;10.43;48.94;93194.03;6102754;23;20185;-84
2022/02/21 07:25:23;;;;;;;1.25;1.00;;;10.70;65.10;;;10.48;48.99;93192.28;6104401;23;20612;-83
2022/02/21 07:27:52;;;;;;;1.00;1.00;;;10.70;65.00;;;10.61;48.56;93199.09;6103406;23;20635;-84
2022/02/21 07:30:30;;;;;;;1.20;1.08;;;10.80;65.00;;;10.72;48.42;93193.00;6129298;23;20200;-84
2022/02/21 07:32:58;;;;;;;1.20;1.10;;;10.90;64.90;;;10.78;48.42;93211.44;6106279;23;20583;-84
2022/02/21 07:35:26;;;;;;;2.22;1.10;;;11.00;64.80;;;10.84;48.23;93215.75;6101948;23;20284;-83
2022/02/21 07:37:54;;;;;;;1.70;1.35;;;11.10;64.70;;;10.94;48.24;93226.44;6128475;23;20177;-83
2022/02/21 07:40:24;;;;;;;1.00;0.90;;;11.10;64.70;;;11.00;47.88;93229.94;6129442;23;20647;-81
2022/02/21 07:42:54;;;;;;;1.10;1.10;;;11.20;64.60;;;11.02;47.73;93225.25;6128397;23;20212;-81
2022/02/21 07:45:26;;;;;;;0.98;0.98;;;11.30;64.50;;;11.09;47.81;93239.00;6105657;23;20648;-81
2022/02/21 07:47:57;;;;;;;1.75;1.10;;;11.30;64.30;;;11.08;47.48;93236.63;6105158;23;20183;-81
2022/02/21 07:50:28;;;;;;;1.02;0.80;;;11.40;64.30;;;11.14;47.66;93254.06;6128293;23;20205;-81
2022/02/21 07:52:55;;;;;;;1.52;1.10;;;11.40;64.30;;;11.14;47.54;93246.19;6128396;23;20201;-81
2022/02/21 07:55:26;;;;;;;2.83;1.10;;;11.40;64.30;;;11.19;48.13;93327.59;6105356;23;20196;-81
2022/02/21 07:57:53;;;;;;;1.20;1.10;;;11.50;65.10;;;10.87;50.37;93314.97;6104073;23;20220;-80
2022/02/21 08:00:21;;;;;;;1.30;1.20;;;11.50;66.30;;;10.41;50.56;93320.06;6104655;23;20200;-80
2022/02/21 08:02:49;;;;;;;1.42;1.00;;;11.30;66.30;;;9.98;52.58;93321.19;6129671;23;20192;-81
2022/02/21 08:05:17;;;;;;;1.52;1.00;;;11.20;66.40;;;9.55;53.41;93331.72;6128297;23;20186;-81
2022/02/21 08:07:44;;;;;;;0.93;0.80;;;10.80;66.90;;;9.21;55.30;93328.78;6129187;23;20268;-80
2022/02/21 08:10:14;;;;;;;0.80;0.80;;;10.60;67.30;;;8.88;55.83;93345.69;6128651;23;20295;-80
2022/02/21 08:12:41;;;;;;;1.65;1.08;;;10.30;67.80;;;8.61;56.24;93358.28;6129241;23;20675;-81
2022/02/21 08:15:09;;;;;;;0.90;0.90;;;10.00;67.80;;;8.39;56.50;93365.72;6104323;23;20217;-80
2022/02/21 08:17:45;;;;;;;2.00;1.08;;;9.80;69.70;;;8.17;56.38;93408.69;6128612;23;20197;-80
2022/02/21 08:20:15;;;;;;;0.90;0.90;;;9.60;70.50;;;8.02;57.23;93393.34;6129697;23;20195;-80
2022/02/21 08:22:43;;;;;;;0.90;0.90;;;9.30;69.80;;;7.87;57.25;93398.09;6129213;23;20166;-80
2022/02/21 08:25:12;;;;;;;0.90;0.90;;;9.10;70.00;;;7.77;57.14;93395.94;6129259;23;20193;-81
2022/02/21 08:27:41;;;;;;;1.00;1.00;;;9.00;70.20;;;7.70;57.54;93426.50;6104589;23;20173;-82
2022/02/21 08:30:15;;;;;;;1.25;0.80;;;8.90;70.30;;;7.62;58.00;93413.72;6104385;23;20649;-81
2022/02/21 08:32:43;;;;;;;0.80;0.80;;;8.80;70.40;;;7.61;57.54;93412.13;6104968;23;20201;-81
2022/02/21 08:35:11;;;;;;;0.90;0.90;;;8.70;70.20;;;7.61;57.50;93420.75;6128615;23;20276;-81
2022/02/21 08:37:40;;;;;;;1.10;0.93;;;8.70;70.30;;;7.63;57.64;93417.91;6128818;23;20595;-81
2022/02/21 08:40:11;;;;;;;0.80;0.80;;;8.60;70.50;;;7.68;57.02;93418.09;6128607;23;20193;-80
2022/02/21 08:42:39;;;;;;;2.63;1.08;;;8.60;70.40;;;7.74;56.95;93425.09;6128241;23;20174;-81
2022/02/21 08:45:08;;;;;;;0.90;0.90;;;8.60;70.30;;;7.82;56.88;93427.44;6155169;23;20271;-81
2022/02/21 08:47:35;;;;;;;0.80;0.80;;;8.60;70.20;;;7.85;56.74;93440.06;6152627;23;20252;-81
2022/02/21 08:50:05;;;;;;;2.17;1.00;;;8.70;70.20;;;7.91;57.01;93451.50;6128835;23;20256;-80
2022/02/21 08:52:34;;;;;;;0.95;0.90;;;8.70;70.50;;;7.91;56.50;93476.78;6103605;23;20260;-80
2022/02/21 08:55:02;;;;;;;1.27;1.00;;;8.70;70.10;;;7.93;56.66;93479.97;6128869;23;20197;-80
2022/02/21 08:57:30;;;;;;;1.33;1.10;;;8.70;70.40;;;7.91;56.93;93487.22;6104155;23;20656;-80
2022/02/21 08:59:57;;;;;;;1.17;1.17;;;8.70;70.70;;;7.82;56.64;93487.50;6103494;23;20276;-80
2022/02/21 09:02:24;;;;;;;1.00;1.00;;;8.50;70.80;;;7.71;56.54;93472.47;6103528;23;20174;-80
2022/02/21 09:05:14;;;;;;;1.10;1.00;;;8.50;70.60;;;7.59;56.97;93508.88;6132200;23;20706;-80
2022/02/21 09:07:41;;;;;;;0.95;0.90;;;8.40;70.90;;;7.45;57.42;93502.13;6152956;23;20260;-79
2022/02/21 09:10:09;;;;;;;1.30;1.08;;;8.30;70.90;;;7.32;57.05;93519.44;6105744;23;20217;-80
2022/02/21 09:12:36;;;;;;;1.08;1.00;;;8.20;70.70;;;7.25;57.08;93526.47;6106405;23;20537;-79
2022/02/21 09:15:04;;;;;;;1.20;1.10;;;8.10;70.60;;;7.20;57.25;93531.47;6105714;23;20228;-80
2022/02/21 09:17:31;;;;;;;1.02;1.00;;;8.10;70.60;;;7.12;56.15;93536.94;6130197;23;20554;-78
2022/02/21 09:19:58;;;;;;;1.20;1.10;;;7.90;70.10;;;7.03;56.13;93576.25;6104518;23;20201;-83
2022/02/21 09:22:25;;;;;;;1.00;1.00;;;7.90;70.20;;;6.97;55.88;93608.34;6156766;23;20170;-83
2022/02/21 09:24:53;;;;;;;2.00;1.23;;;7.80;69.90;;;6.85;55.51;93630.81;6082681;23;20320;-83
2022/02/21 09:27:21;;;;;;;1.73;1.20;;;7.70;69.60;;;6.80;55.45;93649.66;6106210;23;20174;-83
2022/02/21 09:29:49;;;;;;;1.10;1.00;;;7.70;69.80;;;6.70;55.82;93657.03;6081796;23;20536;-83
2022/02/21 09:32:16;;;;;;;1.83;1.17;;;7.60;69.80;;;6.55;55.80;93693.69;6130872;23;20216;-83
2022/02/21 09:34:44;;;;;;;1.50;1.10;;;7.50;69.80;;;6.35;56.66;93685.84;6129417;23;20189;-81
2022/02/21 09:37:11;;;;;;;2.28;1.10;;;7.40;70.10;;;6.17;56.92;93668.16;6081943;23;20220;-84
2022/02/21 09:39:38;;;;;;;0.98;0.95;;;7.30;70.20;;;6.01;57.17;93690.91;6130401;23;20556;-84
2022/02/21 09:42:06;;;;;;;1.40;1.20;;;7.10;70.20;;;5.92;57.45;93681.66;6106279;23;20182;-83
2022/02/21 09:44:33;;;;;;;1.60;1.17;;;7.00;70.20;;;5.83;57.62;93693.19;6082104;23;20714;-82
2022/02/21 09:47:01;;;;;;;1.20;1.10;;;6.90;70.40;;;5.74;57.74;93661.34;6105526;23;20190;-82
2022/02/21 09:49:30;;;;;;;1.42;1.33;;;6.80;70.60;;;5.72;57.79;93661.50;6129347;23;20197;-84
2022/02/21 09:51:57;;;;;;;0.90;0.90;;;6.70;70.60;;;5.71;57.54;93648.69;6129522;23;20264;-81
2022/02/21 09:54:27;;;;;;;1.13;1.13;;;6.60;70.70;;;5.75;57.34;93657.75;6129641;23;20208;-81
2022/02/21 09:56:55;;;;;;;2.45;1.40;;;6.60;70.50;;;5.79;57.36;93686.78;6081940;23;20244;-80
2022/02/21 09:59:22;;;;;;;2.78;1.33;;;6.60;70.50;;;5.76;57.11;93672.34;6105824;23;20200;-82
2022/02/21 10:01:51;;;;;;;2.10;1.30;;;6.50;70.50;;;5.84;57.50;93658.38;6106359;23;20182;-82
2022/02/21 10:04:24;;;;;;;1.05;1.00;;;6.60;71.00;;;5.83;57.66;93667.97;6131080;23;21138;-81
2022/02/21 10:06:54;;;;;;;1.00;1.00;;;6.60;71.50;;;5.88;58.43;93667.41;6081023;23;20188;-80
2022/02/21 10:09:27;;;;;;;1.02;0.90;;;6.60;71.80;;;5.85;59.67;93662.59;6129889;23;20189;-81
2022/02/21 10:11:56;;;;;;;1.17;1.10;;;6.60;72.30;;;5.94;58.76;93679.63;6105873;23;20636;-82
2022/02/21 10:14:29;;;;;;;1.20;1.20;;;6.60;72.10;;;6.00;58.35;93712.72;6081002;23;20200;-82
2022/02/21 10:17:02;;;;;;;0.93;0.93;;;6.60;72.50;;;6.00;58.03;93710.13;6103042;23;20169;-82
2022/02/21 10:19:40;;;;;;;0.90;0.90;;;6.70;72.50;;;6.01;58.22;93706.53;6129105;23;20197;-81
2022/02/21 10:22:14;;;;;;;1.40;1.10;;;6.70;72.20;;;6.08;58.87;93712.56;6127186;23;20597;-81
2022/02/21 10:24:47;;;;;;;1.13;1.00;;;6.80;72.30;;;6.18;57.97;93712.22;6128693;23;20193;-82
2022/02/21 10:27:24;;;;;;;1.63;1.00;;;6.80;72.30;;;6.31;58.13;93721.88;6128473;23;20162;-80